Time;durP1;ratioP1;P1;durP2;ratioP2;P2;SDS_P1;SDS_P2;PMS_P1;PMS_P2;Temp;Humidity;BMP_temperature;BMP_pressure;BME280_temperature;BME280_humidity;BME280_pressure;Samples;Min_cycle;Max_cycle;Signal;HPM_P1;HPM_P2
2024/01/04 00:00:47;;;;;;;3.60;1.90;;;9.90;95.90;;;11.48;66.41;98874.69;3082308;46;20561;-67
2024/01/04 00:03:15;;;;;;;3.67;2.10;;;9.80;95.90;;;11.48;66.82;98874.69;3082202;46;20911;-66
2024/01/04 00:05:44;;;;;;;3.30;1.83;;;9.80;95.90;;;11.48;66.67;98882.59;3081557;46;20473;-65
2024/01/04 00:08:12;;;;;;;4.50;2.13;;;9.80;95.90;;;11.49;66.50;98884.19;3081395;46;20437;-67
2024/01/04 00:10:40;;;;;;;5.53;1.70;;;9.80;95.90;;;11.49;66.40;98892.09;3081866;46;20431;-68
2024/01/04 00:13:09;;;;;;;2.60;1.90;;;9.80;95.90;;;11.47;66.47;98887.06;3081900;46;20524;-67
2024/01/04 00:15:37;;;;;;;4.13;2.00;;;9.80;95.90;;;11.46;66.39;98882.00;3081829;46;20588;-68
2024/01/04 00:18:05;;;;;;;3.73;1.63;;;9.80;95.80;;;11.45;66.39;98888.31;3081562;46;21005;-67
2024/01/04 00:20:34;;;;;;;3.30;2.03;;;9.80;95.80;;;11.45;66.55;98897.03;3080826;46;20424;-66
2024/01/04 00:23:03;;;;;;;3.73;2.03;;;9.80;95.90;;;11.46;66.20;98895.16;3081889;46;20514;-66
2024/01/04 00:25:31;;;;;;;2.53;1.67;;;9.80;95.80;;;11.47;66.40;98899.41;3081888;46;20429;-67
2024/01/04 00:28:00;;;;;;;3.17;1.70;;;9.80;95.80;;;11.47;66.07;98904.69;3081189;46;20475;-67
2024/01/04 00:30:28;;;;;;;2.97;1.90;;;9.80;95.80;;;11.47;66.12;98904.69;3081910;46;20432;-68
2024/01/04 00:32:57;;;;;;;1.87;1.30;;;9.80;95.70;;;11.46;66.01;98909.13;3081451;46;20619;-66
2024/01/04 00:35:25;;;;;;;2.43;1.40;;;9.80;95.60;;;11.44;66.03;98916.47;3081811;46;20428;-66
2024/01/04 00:37:54;;;;;;;3.80;1.20;;;9.80;95.50;;;11.42;65.79;98907.19;3081205;46;20479;-67
2024/01/04 00:40:22;;;;;;;2.50;1.30;;;9.80;95.40;;;11.39;65.86;98920.78;3081824;46;20506;-67
2024/01/04 00:42:50;;;;;;;2.77;0.93;;;9.80;95.40;;;11.36;65.56;98914.16;3081598;46;20456;-67
2024/01/04 00:45:19;;;;;;;2.20;1.20;;;9.70;95.10;;;11.35;65.42;98932.81;3081861;46;20429;-66
2024/01/04 00:47:47;;;;;;;3.13;1.17;;;9.70;95.20;;;11.33;65.23;98938.31;3081219;46;20466;-67
2024/01/04 00:50:16;;;;;;;2.27;0.97;;;9.70;95.00;;;11.30;65.46;98935.31;3081555;46;20678;-67
2024/01/04 00:52:44;;;;;;;4.13;1.10;;;9.60;95.10;;;11.28;65.40;98942.63;3081253;46;20452;-67
2024/01/04 00:55:25;;;;;;;2.00;1.20;;;9.60;95.00;;;11.27;65.34;98943.66;3081703;46;20555;-66
2024/01/04 00:57:54;;;;;;;2.50;0.90;;;9.60;94.90;;;11.27;65.10;98946.28;3080820;46;20588;-65
2024/01/04 01:00:22;;;;;;;6.60;1.10;;;9.60;95.00;;;11.27;65.00;98948.91;3081664;46;20510;-67
2024/01/04 01:02:50;;;;;;;1.33;1.07;;;9.60;94.90;;;11.26;64.96;98960.50;3081452;46;20486;-65
2024/01/04 01:05:19;;;;;;;3.50;1.50;;;9.60;94.90;;;11.26;64.98;98963.13;3081387;46;20431;-67
2024/01/04 01:07:47;;;;;;;2.93;1.23;;;9.60;94.90;;;11.24;64.93;98971.25;3080739;46;20468;-66
2024/01/04 01:10:16;;;;;;;2.30;0.90;;;9.60;95.00;;;11.23;64.86;98971.47;3081521;46;21095;-67
2024/01/04 01:12:44;;;;;;;1.77;0.83;;;9.60;94.90;;;11.17;64.42;98975.78;3081337;46;20428;-65
2024/01/04 01:15:13;;;;;;;2.60;0.70;;;9.50;94.50;;;11.12;64.53;98982.75;3081900;46;21078;-66
2024/01/04 01:17:41;;;;;;;1.90;0.87;;;9.50;94.70;;;11.05;64.26;98982.03;3080753;46;20443;-67
2024/01/04 01:20:11;;;;;;;4.17;0.87;;;9.40;94.40;;;10.96;63.99;98996.53;3080958;46;20435;-66
2024/01/04 01:22:39;;;;;;;0.93;0.67;;;9.40;94.50;;;10.85;64.51;99001.47;3081609;46;21006;-66
2024/01/04 01:25:07;;;;;;;1.47;0.70;;;9.30;94.50;;;10.78;64.75;98999.94;3081286;46;21013;-66
2024/01/04 01:27:37;;;;;;;2.57;0.80;;;9.20;94.60;;;10.72;64.59;98996.34;3080882;46;20522;-67
2024/01/04 01:30:06;;;;;;;1.67;0.60;;;9.20;94.60;;;10.67;64.98;99014.59;3081495;46;20429;-67
2024/01/04 01:32:35;;;;;;;1.97;0.90;;;9.10;94.80;;;10.63;65.19;99012.63;3080630;46;20594;-67
2024/01/04 01:35:04;;;;;;;5.67;1.20;;;9.10;94.90;;;10.60;65.28;99016.50;3081319;46;20478;-67
2024/01/04 01:37:32;;;;;;;2.97;1.20;;;9.00;95.00;;;10.56;65.30;99028.50;3080722;46;20573;-68
2024/01/04 01:40:01;;;;;;;2.33;1.00;;;9.00;95.10;;;10.55;65.56;99036.59;3081318;46;20427;-67
2024/01/04 01:42:29;;;;;;;2.13;1.40;;;9.00;95.30;;;10.53;65.60;99030.75;3081140;46;20432;-65
2024/01/04 01:44:59;;;;;;;2.07;1.00;;;8.90;95.20;;;10.50;65.49;99044.34;3081234;46;20431;-67
2024/01/04 01:47:29;;;;;;;6.20;1.10;;;8.90;95.10;;;10.49;65.66;99042.72;3080060;46;20463;-67
2024/01/04 01:49:58;;;;;;;1.43;0.90;;;8.90;95.20;;;10.49;65.46;99043.53;3080534;46;21072;-64
2024/01/04 01:52:26;;;;;;;1.60;0.90;;;8.80;95.00;;;10.49;65.11;99045.34;3080938;46;20568;-67
2024/01/04 01:54:54;;;;;;;1.57;0.70;;;8.80;94.70;;;10.46;64.94;99049.22;3081195;46;20427;-67
2024/01/04 01:57:25;;;;;;;1.93;0.80;;;8.80;95.00;;;10.43;64.79;99054.91;3080429;46;20519;-67
2024/01/04 01:59:53;;;;;;;2.83;1.13;;;8.80;94.50;;;10.39;64.56;99053.72;3080990;46;21111;-67
2024/01/04 02:02:22;;;;;;;0.57;0.57;;;8.80;94.40;;;10.37;64.57;99055.75;3080551;46;20429;-65
2024/01/04 02:04:50;;;;;;;2.40;1.00;;;8.70;94.30;;;10.37;64.39;99073.34;3080652;46;20428;-66
2024/01/04 02:07:19;;;;;;;1.10;0.80;;;8.70;94.20;;;10.35;64.21;99073.59;3080373;46;20459;-67
2024/01/04 02:09:48;;;;;;;1.10;0.70;;;8.70;94.00;;;10.35;63.77;99084.09;3080598;46;20554;-67
2024/01/04 02:12:16;;;;;;;2.37;0.90;;;8.70;93.90;;;10.34;63.83;99087.75;3080111;46;20448;-67
2024/01/04 02:14:45;;;;;;;2.13;0.63;;;8.70;93.80;;;10.34;63.27;99100.88;3080052;46;20533;-67
2024/01/04 02:17:13;;;;;;;2.37;0.83;;;8.70;93.50;;;10.33;63.30;99101.09;3080368;46;20470;-67
2024/01/04 02:19:41;;;;;;;1.90;0.87;;;8.70;93.50;;;10.33;63.09;99106.38;3080880;46;20431;-67
2024/01/04 02:22:11;;;;;;;3.37;1.03;;;8.70;93.40;;;10.29;62.71;99113.91;3080748;46;20430;-67
2024/01/04 02:24:40;;;;;;;0.80;0.60;;;8.60;92.90;;;10.26;62.54;99110.88;3080888;46;20448;-66
2024/01/04 02:27:09;;;;;;;0.73;0.60;;;8.60;92.90;;;10.23;62.45;99116.53;3079994;46;21016;-66
2024/01/04 02:29:38;;;;;;;1.73;0.63;;;8.60;92.90;;;10.20;62.24;99125.66;3079224;46;20454;-65
2024/01/04 02:32:07;;;;;;;0.70;0.70;;;8.60;92.80;;;10.18;61.99;99128.50;3079962;46;21010;-65
2024/01/04 02:34:35;;;;;;;2.50;0.80;;;8.60;92.80;;;10.17;61.95;99134.00;3080803;46;20552;-69
2024/01/04 02:37:04;;;;;;;0.97;0.83;;;8.50;92.80;;;10.15;61.98;99136.00;3080328;46;20459;-67
2024/01/04 02:39:32;;;;;;;4.73;1.17;;;8.50;92.60;;;10.13;61.84;99144.09;3080562;46;20502;-67
2024/01/04 02:42:00;;;;;;;2.83;1.20;;;8.50;92.60;;;10.11;61.69;99146.16;3080275;46;21002;-66
2024/01/04 02:44:29;;;;;;;4.73;0.80;;;8.50;92.40;;;10.08;61.58;99151.78;3082312;46;20427;-67
2024/01/04 02:46:57;;;;;;;3.30;1.07;;;8.50;92.40;;;10.07;61.54;99152.00;3082277;46;20584;-66
2024/01/04 02:49:27;;;;;;;1.00;0.83;;;8.50;92.40;;;10.06;60.85;99156.44;3082351;46;20557;-66
2024/01/04 02:51:55;;;;;;;2.40;0.80;;;8.40;92.00;;;10.03;61.24;99161.34;3082905;46;21021;-67
2024/01/04 02:54:23;;;;;;;1.90;0.70;;;8.40;92.20;;;10.02;61.15;99163.16;3082682;46;20477;-67
2024/01/04 02:56:52;;;;;;;1.97;0.77;;;8.40;92.30;;;10.02;61.28;99170.22;3082623;46;21004;-67
2024/01/04 02:59:20;;;;;;;1.43;0.60;;;8.40;92.20;;;10.01;61.32;99181.75;3082721;46;20581;-66
2024/01/04 03:01:49;;;;;;;1.47;0.60;;;8.40;92.20;;;9.98;60.75;99182.19;3082702;46;20434;-65
2024/01/04 03:04:17;;;;;;;1.83;0.70;;;8.40;92.00;;;9.97;60.78;99186.63;3082570;46;20455;-65
2024/01/04 03:06:45;;;;;;;3.00;0.90;;;8.30;92.30;;;9.96;60.94;99190.25;3082457;46;20481;-67
2024/01/04 03:09:14;;;;;;;1.80;0.63;;;8.30;92.00;;;9.95;60.92;99198.34;3082537;46;20427;-69
2024/01/04 03:11:42;;;;;;;1.00;0.83;;;8.30;92.00;;;9.92;60.80;99194.31;3082732;46;20439;-66
2024/01/04 03:14:11;;;;;;;3.23;0.70;;;8.30;92.10;;;9.89;61.12;99199.19;3082873;46;20530;-67
2024/01/04 03:16:40;;;;;;;1.93;0.60;;;8.30;92.10;;;9.86;61.11;99200.41;3082461;46;21009;-65
2024/01/04 03:19:08;;;;;;;1.00;0.60;;;8.30;92.10;;;9.84;60.85;99204.28;3082221;46;20424;-67
2024/01/04 03:21:37;;;;;;;0.63;0.63;;;8.20;92.00;;;9.83;60.92;99210.53;3082523;46;20430;-66
2024/01/04 03:24:05;;;;;;;1.70;0.80;;;8.20;92.00;;;9.82;60.99;99211.53;3082183;46;20431;-67
2024/01/04 03:26:34;;;;;;;2.17;1.10;;;8.20;91.80;;;9.79;60.41;99222.47;3082214;46;20453;-67
2024/01/04 03:29:02;;;;;;;2.07;0.60;;;8.20;91.70;;;9.76;60.56;99228.13;3082273;46;20431;-67
2024/01/04 03:31:30;;;;;;;1.83;0.50;;;8.20;91.80;;;9.75;60.64;99234.38;3082434;46;20489;-66
2024/01/04 03:33:59;;;;;;;1.20;0.60;;;8.20;91.80;;;9.75;60.76;99239.63;3082296;46;20534;-63
2024/01/04 03:36:27;;;;;;;2.00;0.50;;;8.10;91.90;;;9.72;60.64;99245.31;3082114;46;20496;-67
2024/01/04 03:38:56;;;;;;;1.73;0.63;;;8.10;92.10;;;9.69;60.93;99245.72;3082042;46;20601;-67
2024/01/04 03:41:24;;;;;;;3.67;0.83;;;8.10;92.20;;;9.66;61.22;99251.38;3082243;46;20433;-66
2024/01/04 03:43:52;;;;;;;2.13;0.60;;;8.10;92.40;;;9.64;61.50;99259.47;3082424;46;20572;-66
2024/01/04 03:46:21;;;;;;;3.07;0.97;;;8.00;92.40;;;9.63;61.35;99262.31;3082099;46;20483;-67
2024/01/04 03:48:49;;;;;;;0.80;0.60;;;8.00;92.60;;;9.62;61.60;99260.69;3081478;46;20533;-67
2024/01/04 03:51:18;;;;;;;1.97;0.90;;;8.00;92.70;;;9.62;61.79;99263.31;3082118;46;20518;-67
2024/01/04 03:53:46;;;;;;;1.63;0.70;;;8.00;92.70;;;9.60;61.86;99266.16;3081969;46;20435;-67
2024/01/04 03:56:15;;;;;;;2.50;0.60;;;7.90;92.80;;;9.57;61.96;99265.75;3082470;46;20513;-66
2024/01/04 03:58:43;;;;;;;2.03;0.73;;;7.90;92.90;;;9.53;62.27;99283.75;3081549;46;20507;-65
2024/01/04 04:01:11;;;;;;;1.53;0.90;;;7.90;93.00;;;9.49;62.43;99282.53;3082125;46;20560;-66
2024/01/04 04:03:40;;;;;;;1.70;0.87;;;7.90;93.20;;;9.45;62.29;99286.56;3081688;46;20476;-65
2024/01/04 04:06:09;;;;;;;1.87;1.00;;;7.80;93.20;;;9.42;62.93;99295.66;3082255;46;20428;-66
2024/01/04 04:08:37;;;;;;;3.23;0.90;;;7.80;93.30;;;9.45;62.85;99307.59;3081588;46;20444;-66
2024/01/04 04:11:18;;;;;;;3.80;1.57;;;7.80;93.50;;;9.43;63.13;99309.59;3081622;46;20428;-62
2024/01/04 04:13:47;;;;;;;3.50;1.37;;;7.80;93.60;;;9.42;62.97;99319.28;3082124;46;20445;-67
2024/01/04 04:16:15;;;;;;;3.83;0.80;;;7.80;93.60;;;9.39;62.73;99314.44;3081712;46;20432;-67
2024/01/04 04:18:44;;;;;;;1.07;0.73;;;7.80;93.40;;;9.35;63.02;99323.75;3081266;46;21257;-66
2024/01/04 04:21:24;;;;;;;1.10;0.87;;;7.70;93.40;;;9.29;62.80;99323.75;3081848;46;20561;-67
2024/01/04 04:23:52;;;;;;;2.53;0.77;;;7.70;93.30;;;9.28;62.97;99327.38;3081885;46;20431;-68
2024/01/04 04:26:21;;;;;;;2.03;0.53;;;7.70;93.30;;;9.26;62.98;99324.13;3081705;46;20524;-63
2024/01/04 04:28:50;;;;;;;0.53;0.50;;;7.70;93.40;;;9.26;63.13;99343.31;3081568;46;20548;-65
2024/01/04 04:31:19;;;;;;;0.83;0.60;;;7.60;93.30;;;9.24;62.78;99345.34;3080689;46;20456;-66
2024/01/04 04:33:48;;;;;;;1.57;0.50;;;7.60;93.20;;;9.22;62.97;99355.22;3082019;46;20931;-66
2024/01/04 04:36:17;;;;;;;2.23;0.80;;;7.60;93.20;;;9.20;62.99;99351.97;3081725;46;21055;-66
2024/01/04 04:38:45;;;;;;;1.87;1.27;;;7.60;93.20;;;9.18;62.73;99356.63;3081083;46;20440;-66
2024/01/04 04:41:14;;;;;;;1.80;0.80;;;7.60;93.30;;;9.17;62.92;99368.16;3081472;46;20433;-66
2024/01/04 04:43:43;;;;;;;3.47;1.00;;;7.60;93.30;;;9.16;62.96;99377.03;3081451;46;20518;-65
2024/01/04 04:46:12;;;;;;;6.10;1.70;;;7.50;93.40;;;9.15;63.03;99391.13;3081172;46;20619;-67
2024/01/04 04:48:40;;;;;;;5.03;2.23;;;7.50;93.30;;;9.13;62.93;99387.13;3080065;46;20642;-66
2024/01/04 04:51:10;;;;;;;4.00;2.07;;;7.50;93.20;;;9.11;63.03;99397.81;3081088;46;20435;-66
2024/01/04 04:53:39;;;;;;;4.57;2.30;;;7.50;93.10;;;9.08;62.64;99395.56;3081374;46;21020;-63
2024/01/04 04:56:08;;;;;;;3.23;1.90;;;7.50;92.90;;;9.05;62.31;99406.47;3081401;46;20428;-66
2024/01/04 04:58:37;;;;;;;3.73;2.33;;;7.40;92.70;;;9.01;62.30;99407.84;3080710;46;21005;-66
2024/01/04 05:01:06;;;;;;;3.33;2.10;;;7.40;92.60;;;8.97;62.22;99411.88;3081372;46;20513;-66
2024/01/04 05:03:36;;;;;;;5.57;2.30;;;7.40;92.60;;;8.95;62.28;99416.53;3081205;46;20518;-67
2024/01/04 05:06:10;;;;;;;2.97;2.30;;;7.30;92.70;;;8.95;62.25;99418.34;3080980;46;20447;-66
2024/01/04 05:08:40;;;;;;;5.80;3.23;;;7.30;92.70;;;8.92;62.41;99422.16;3080685;46;20444;-66
2024/01/04 05:11:08;;;;;;;7.07;3.60;;;7.30;92.60;;;8.91;62.34;99433.69;3080892;46;20428;-66
2024/01/04 05:13:36;;;;;;;8.37;2.97;;;7.30;92.70;;;8.89;62.28;99427.78;3080831;46;20431;-66
2024/01/04 05:16:06;;;;;;;4.73;2.00;;;7.30;92.90;;;8.89;62.17;99438.28;3081242;46;20428;-66
2024/01/04 05:18:34;;;;;;;5.23;1.43;;;7.30;93.00;;;8.88;62.10;99454.25;3080477;46;20489;-66
2024/01/04 05:21:04;;;;;;;1.87;1.50;;;7.30;92.80;;;8.84;62.01;99456.47;3080917;46;20533;-65
2024/01/04 05:23:32;;;;;;;3.97;2.40;;;7.20;92.50;;;8.80;62.26;99456.03;3080715;46;21008;-66
2024/01/04 05:26:00;;;;;;;4.60;1.60;;;7.20;92.60;;;8.79;62.05;99458.84;3080886;46;21084;-67
2024/01/04 05:28:29;;;;;;;3.80;1.80;;;7.20;92.50;;;8.77;61.79;99460.88;3080435;46;20478;-66
2024/01/04 05:30:57;;;;;;;2.93;1.27;;;7.20;92.40;;;8.74;62.02;99480.41;3080965;46;20481;-65
2024/01/04 05:33:26;;;;;;;2.87;1.63;;;7.10;92.40;;;8.73;61.81;99486.66;3080877;46;20565;-67
2024/01/04 05:35:54;;;;;;;3.43;1.60;;;7.10;92.30;;;8.72;61.96;99494.72;3081161;46;20451;-69
2024/01/04 05:38:23;;;;;;;4.60;2.13;;;7.10;92.30;;;8.70;62.01;99507.22;3080036;46;20521;-67
2024/01/04 05:40:51;;;;;;;3.80;1.67;;;7.10;92.40;;;8.67;61.96;99510.22;3080361;46;20550;-67
2024/01/04 05:43:19;;;;;;;4.63;2.10;;;7.00;92.50;;;8.65;62.02;99523.50;3080681;46;20478;-65
2024/01/04 05:45:48;;;;;;;8.57;2.47;;;7.00;92.50;;;8.63;62.21;99516.84;3080840;46;20455;-64
2024/01/04 05:48:16;;;;;;;4.87;2.27;;;7.00;92.70;;;8.65;62.09;99514.88;3080134;46;20441;-67
2024/01/04 05:50:45;;;;;;;8.70;2.80;;;7.00;93.10;;;8.66;62.64;99533.03;3080216;46;20440;-66
2024/01/04 05:53:13;;;;;;;5.73;2.50;;;7.00;92.90;;;8.70;62.63;99525.59;3080656;46;20994;-67
2024/01/04 05:55:41;;;;;;;8.93;3.27;;;7.00;93.00;;;8.73;62.63;99543.53;3080696;46;20507;-67
2024/01/04 05:58:10;;;;;;;2.73;1.93;;;7.00;93.10;;;8.75;62.29;99552.03;3080324;46;20439;-66
2024/01/04 06:00:38;;;;;;;4.53;1.20;;;7.10;93.10;;;8.75;62.22;99555.47;3080510;46;20554;-64
2024/01/04 06:03:07;;;;;;;3.10;1.80;;;7.10;92.80;;;8.74;62.51;99560.91;3080761;46;20432;-67
2024/01/04 06:05:35;;;;;;;2.87;1.53;;;7.10;93.10;;;8.75;62.91;99568.59;3080659;46;20432;-65
2024/01/04 06:08:04;;;;;;;2.60;1.43;;;7.10;93.20;;;8.81;62.78;99585.38;3079888;46;20968;-66
2024/01/04 06:10:33;;;;;;;3.47;1.73;;;7.10;93.50;;;8.85;62.89;99589.22;3080556;46;20589;-66
2024/01/04 06:13:02;;;;;;;2.43;1.50;;;7.20;93.40;;;8.88;62.85;99599.34;3080617;46;21102;-67
2024/01/04 06:15:31;;;;;;;1.40;1.30;;;7.20;93.10;;;8.90;62.22;99602.59;3080476;46;20440;-63
2024/01/04 06:17:59;;;;;;;1.47;1.13;;;7.20;92.70;;;8.89;62.14;99614.06;3080256;46;20581;-66
2024/01/04 06:20:28;;;;;;;5.07;1.57;;;7.20;92.60;;;8.90;61.88;99618.34;3083155;46;20456;-66
2024/01/04 06:22:57;;;;;;;2.20;1.40;;;7.20;92.30;;;8.88;61.96;99619.53;3082977;46;20498;-64
2024/01/04 06:25:27;;;;;;;4.80;1.53;;;7.20;92.40;;;8.89;62.02;99626.41;3083201;46;21177;-66
2024/01/04 06:27:55;;;;;;;3.37;1.80;;;7.20;92.50;;;8.90;61.77;99634.06;3082307;46;20605;-66
2024/01/04 06:30:24;;;;;;;3.50;1.77;;;7.20;92.30;;;8.90;61.54;99647.19;3083143;46;20471;-64
2024/01/04 06:32:53;;;;;;;5.57;2.27;;;7.20;92.20;;;8.90;61.43;99654.25;3082596;46;20529;-64
2024/01/04 06:35:21;;;;;;;2.87;2.47;;;7.20;92.20;;;8.89;61.38;99653.44;3082888;46;20517;-63
2024/01/04 06:37:51;;;;;;;3.80;2.27;;;7.20;92.10;;;8.84;61.11;99655.84;3082516;46;20479;-66
2024/01/04 06:40:19;;;;;;;5.87;2.87;;;7.20;91.90;;;8.82;61.24;99668.31;3082851;46;20456;-67
2024/01/04 06:42:55;;;;;;;6.53;2.70;;;7.20;92.10;;;8.79;61.10;99668.72;3082693;46;20544;-66
2024/01/04 06:45:23;;;;;;;4.37;2.73;;;7.10;92.00;;;8.75;61.05;99684.00;3083046;46;21058;-62
2024/01/04 06:47:51;;;;;;;7.47;3.40;;;7.10;92.10;;;8.72;61.51;99689.63;3082130;46;20452;-63
2024/01/04 06:50:21;;;;;;;6.17;2.87;;;7.10;92.20;;;8.70;61.43;99690.84;3082478;46;20576;-69
2024/01/04 06:52:49;;;;;;;4.97;2.43;;;7.10;92.20;;;8.68;61.49;99700.66;3082522;46;20447;-66
2024/01/04 06:55:18;;;;;;;3.50;2.33;;;7.00;92.10;;;8.66;61.07;99707.91;3082805;46;20529;-66
2024/01/04 06:57:47;;;;;;;5.60;2.20;;;7.00;92.00;;;8.63;61.16;99705.66;3082374;46;20561;-65
2024/01/04 07:00:15;;;;;;;3.03;1.97;;;7.00;92.00;;;8.61;61.13;99707.66;3082816;46;21013;-64
2024/01/04 07:02:44;;;;;;;6.70;3.47;;;7.00;91.80;;;8.57;61.33;99722.97;3081060;46;20536;-66
2024/01/04 07:05:12;;;;;;;6.43;2.70;;;6.90;91.90;;;8.54;61.09;99723.34;3081860;46;20455;-66
2024/01/04 07:07:41;;;;;;;4.97;2.60;;;6.90;91.90;;;8.50;61.09;99731.78;3081637;46;21024;-66
2024/01/04 07:10:10;;;;;;;3.83;2.60;;;6.90;91.90;;;8.47;60.91;99732.13;3080442;46;20512;-67
2024/01/04 07:12:40;;;;;;;4.10;2.20;;;6.90;91.90;;;8.44;61.19;99733.31;3082013;46;20427;-67
2024/01/04 07:15:10;;;;;;;4.73;2.83;;;6.80;92.10;;;8.48;61.49;99739.00;3082280;46;20424;-65
2024/01/04 07:17:42;;;;;;;6.07;2.47;;;6.80;92.30;;;8.50;61.31;99752.75;3081020;46;20512;-62
2024/01/04 07:20:11;;;;;;;5.67;2.50;;;6.80;92.10;;;8.51;61.49;99749.16;3082347;46;20462;-65
2024/01/04 07:22:39;;;;;;;4.07;1.70;;;6.80;92.10;;;8.50;61.40;99755.38;3082612;46;20560;-66
2024/01/04 07:25:11;;;;;;;5.10;2.67;;;6.80;92.10;;;8.49;61.33;99756.34;3080968;46;20452;-64
2024/01/04 07:27:40;;;;;;;1.90;1.43;;;6.80;92.50;;;8.52;61.75;99756.81;3081451;46;20439;-65
2024/01/04 07:30:10;;;;;;;2.07;1.50;;;6.80;92.20;;;8.55;61.50;99766.13;3079902;46;20521;-63
2024/01/04 07:32:38;;;;;;;3.93;2.67;;;6.80;92.50;;;8.61;61.78;99770.59;3081927;46;20465;-66
2024/01/04 07:35:12;;;;;;;2.73;1.90;;;6.90;92.60;;;8.65;61.63;99772.66;3081095;46;20452;-64
2024/01/04 07:37:44;;;;;;;1.87;1.47;;;6.90;92.40;;;8.68;62.09;99776.72;3082006;46;21013;-66
2024/01/04 07:40:13;;;;;;;2.63;1.53;;;7.00;92.70;;;8.72;61.87;99788.50;3081743;46;21089;-65
2024/01/04 07:42:42;;;;;;;2.40;1.17;;;7.00;92.60;;;8.72;61.72;99793.75;3081499;46;20917;-65
2024/01/04 07:45:13;;;;;;;2.73;1.60;;;7.00;92.30;;;8.71;61.63;99802.59;3081985;46;20451;-66
2024/01/04 07:47:42;;;;;;;1.77;1.30;;;7.00;92.10;;;8.70;61.17;99811.50;3081534;46;20435;-66
2024/01/04 07:50:12;;;;;;;23.03;15.50;;;7.00;91.80;;;8.68;60.97;99808.22;3081282;46;21022;-66
2024/01/04 07:52:40;;;;;;;5.67;1.93;;;7.00;91.80;;;8.70;61.04;99814.13;3080905;46;20435;-66
2024/01/04 07:55:08;;;;;;;9.10;3.87;;;7.00;91.90;;;8.70;60.49;99829.84;3081097;46;20485;-66
2024/01/04 07:57:37;;;;;;;3.70;1.60;;;7.00;91.60;;;8.68;60.48;99834.44;3081019;46;20558;-66
2024/01/04 08:00:08;;;;;;;4.17;1.57;;;7.00;91.50;;;8.62;60.04;99840.44;3081688;46;20431;-66
2024/01/04 08:02:37;;;;;;;1.57;1.43;;;7.00;91.30;;;8.56;60.42;99841.16;3081753;46;20499;-67
2024/01/04 08:05:06;;;;;;;2.17;1.73;;;6.90;91.40;;;8.54;60.37;99845.78;3081951;46;20545;-66
2024/01/04 08:07:35;;;;;;;2.63;1.77;;;6.90;91.40;;;8.50;60.54;99852.38;3081677;46;20440;-64
2024/01/04 08:10:04;;;;;;;4.83;2.40;;;6.90;91.60;;;8.51;60.64;99851.41;3081527;46;20427;-66
2024/01/04 08:12:33;;;;;;;5.20;2.80;;;6.80;91.60;;;8.49;60.54;99856.00;3081643;46;20427;-65
2024/01/04 08:15:01;;;;;;;4.40;2.67;;;6.80;91.50;;;8.46;60.85;99865.03;3080860;46;20447;-64
2024/01/04 08:17:30;;;;;;;6.20;3.17;;;6.80;91.80;;;8.49;60.98;99869.94;3081215;46;20443;-65
2024/01/04 08:19:58;;;;;;;5.03;2.67;;;6.80;92.00;;;8.54;60.91;99874.63;3080146;46;20509;-66
2024/01/04 08:22:27;;;;;;;4.67;2.80;;;6.80;91.80;;;8.52;60.50;99881.88;3080271;46;20423;-66
2024/01/04 08:24:55;;;;;;;4.57;2.40;;;6.80;91.70;;;8.48;60.57;99884.06;3081819;46;20584;-66
2024/01/04 08:27:24;;;;;;;15.03;9.77;;;6.80;91.80;;;8.50;60.65;99899.59;3081389;46;20549;-66
2024/01/04 08:29:52;;;;;;;4.97;2.53;;;6.80;91.90;;;8.49;60.84;99896.16;3081268;46;20440;-66
2024/01/04 08:32:20;;;;;;;5.97;2.90;;;6.80;91.80;;;8.48;60.61;99901.59;3081106;46;20976;-67
2024/01/04 08:34:49;;;;;;;4.03;1.83;;;6.80;91.90;;;8.46;61.09;99900.97;3081214;46;20478;-65
2024/01/04 08:37:18;;;;;;;4.13;2.60;;;6.80;91.90;;;8.45;60.66;99907.19;3080476;46;20585;-66
2024/01/04 08:39:46;;;;;;;3.60;2.30;;;6.80;92.00;;;8.47;60.81;99915.69;3080583;46;20423;-66
2024/01/04 08:42:15;;;;;;;6.27;3.10;;;6.80;91.90;;;8.44;60.95;99932.59;3079881;46;20589;-66
2024/01/04 08:44:47;;;;;;;6.43;4.17;;;6.80;91.80;;;8.43;60.99;99930.97;3080350;46;20464;-67
2024/01/04 08:47:15;;;;;;;3.77;2.47;;;6.80;92.20;;;8.46;61.57;99946.31;3079528;46;20596;-66
2024/01/04 08:49:43;;;;;;;2.03;1.40;;;6.80;92.30;;;8.49;61.40;99945.16;3080148;46;20498;-65
2024/01/04 08:52:12;;;;;;;4.10;1.70;;;6.80;92.30;;;8.49;61.58;99955.63;3080200;46;20459;-66
2024/01/04 08:54:42;;;;;;;2.77;1.50;;;6.80;92.40;;;8.46;61.13;99956.03;3081014;46;20478;-66
2024/01/04 08:57:10;;;;;;;2.90;1.57;;;6.80;92.40;;;8.47;61.59;99963.69;3080061;46;20466;-66
2024/01/04 08:59:38;;;;;;;4.97;2.30;;;6.80;92.90;;;8.48;61.92;99964.53;3080627;43;20428;-65
2024/01/04 09:02:07;;;;;;;1.90;1.50;;;6.80;92.60;;;8.51;61.88;99972.81;3077175;46;20447;-66
2024/01/04 09:04:38;;;;;;;3.57;2.13;;;6.80;92.50;;;8.52;61.94;99974.47;3077317;46;20427;-67
2024/01/04 09:07:10;;;;;;;3.00;2.40;;;6.80;92.90;;;8.59;62.34;99977.16;3078553;46;20471;-67
2024/01/04 09:09:40;;;;;;;3.80;2.00;;;6.90;93.00;;;8.68;62.12;99973.47;3079176;46;20551;-67
2024/01/04 09:12:08;;;;;;;2.70;2.20;;;6.90;92.90;;;8.75;62.15;99977.81;3079724;46;20554;-66
2024/01/04 09:14:37;;;;;;;3.60;2.47;;;6.90;92.80;;;8.83;62.03;99979.53;3080266;46;20546;-66
2024/01/04 09:17:05;;;;;;;3.60;2.13;;;7.00;92.90;;;8.90;62.07;99985.66;3079492;46;20436;-65
2024/01/04 09:19:34;;;;;;;2.33;1.63;;;7.10;93.10;;;8.96;61.77;99990.22;3078706;46;21158;-66
2024/01/04 09:22:04;;;;;;;2.93;1.37;;;7.10;92.80;;;8.99;61.65;99995.06;3078178;46;20431;-67
2024/01/04 09:24:32;;;;;;;3.27;1.87;;;7.20;92.60;;;8.98;61.53;100003.97;3078695;46;20438;-65
2024/01/04 09:27:02;;;;;;;3.77;1.40;;;7.20;92.50;;;8.97;61.37;100007.56;3075016;46;20439;-66
2024/01/04 09:29:31;;;;;;;11.70;8.67;;;7.20;92.40;;;8.95;61.21;100009.56;3078876;46;20423;-66
2024/01/04 09:32:01;;;;;;;4.13;1.67;;;7.20;92.30;;;8.93;61.10;100022.06;3077010;44;20475;-65
2024/01/04 09:34:30;;;;;;;6.07;1.90;;;7.20;92.10;;;8.89;61.10;100018.13;3079372;46;20597;-66
2024/01/04 09:37:00;;;;;;;2.80;1.40;;;7.20;91.90;;;8.86;60.64;100023.78;3076974;46;20436;-65
2024/01/04 09:39:29;;;;;;;4.70;2.00;;;7.10;91.70;;;8.86;61.13;100042.13;3078156;46;20460;-63
2024/01/04 09:41:59;;;;;;;3.23;2.03;;;7.10;91.90;;;8.87;60.59;100045.59;3077036;43;21204;-65
2024/01/04 09:44:33;;;;;;;2.83;1.20;;;7.10;91.90;;;8.90;60.70;100053.91;3077681;46;20477;-63
2024/01/04 09:47:09;;;;;;;3.53;1.47;;;7.10;91.90;;;8.93;60.53;100053.53;3076242;46;20511;-66
2024/01/04 09:49:43;;;;;;;1.93;1.10;;;7.10;91.80;;;8.99;60.49;100065.09;3074858;46;21109;-66
2024/01/04 09:52:12;;;;;;;4.73;2.40;;;7.10;91.80;;;9.02;60.13;100067.38;3075488;46;20455;-66
2024/01/04 09:54:44;;;;;;;2.30;1.57;;;7.10;91.60;;;9.05;59.96;100070.47;3079570;43;20536;-64
2024/01/04 09:57:13;;;;;;;12.70;6.67;;;7.20;91.80;;;9.13;60.27;100070.34;3079370;46;20553;-65
2024/01/04 09:59:42;;;;;;;5.00;2.00;;;7.20;92.00;;;9.18;60.03;100068.00;3081663;46;20427;-66
2024/01/04 10:02:11;;;;;;;3.53;1.97;;;7.30;92.00;;;9.19;60.11;100074.91;3080826;46;20443;-64
2024/01/04 10:04:44;;;;;;;4.00;1.57;;;7.30;91.80;;;9.20;59.85;100086.22;3080490;46;21065;-65
2024/01/04 10:07:24;;;;;;;3.20;1.80;;;7.30;91.30;;;9.12;59.72;100084.50;3079799;43;20576;-65
2024/01/04 10:10:08;;;;;;;4.93;1.80;;;7.30;91.40;;;9.08;59.54;100091.09;3080689;46;20475;-66
2024/01/04 10:12:40;;;;;;;3.07;1.80;;;7.30;91.20;;;9.01;59.70;100095.44;3078349;46;20435;-65
2024/01/04 10:15:11;;;;;;;4.47;1.57;;;7.30;91.10;;;8.97;59.89;100102.03;3080222;46;20564;-66
2024/01/04 10:17:40;;;;;;;3.50;1.63;;;7.30;91.10;;;9.01;59.78;100102.50;3079003;46;20466;-66
2024/01/04 10:20:10;;;;;;;4.33;1.60;;;7.20;91.20;;;9.09;60.00;100113.72;3082043;46;20426;-64
2024/01/04 10:22:40;;;;;;;4.73;1.93;;;7.20;91.50;;;9.24;60.29;100105.84;3078756;46;20434;-66
2024/01/04 10:25:18;;;;;;;1.87;1.70;;;7.30;91.90;;;9.40;59.62;100111.72;3081744;43;20500;-65
2024/01/04 10:27:57;;;;;;;1.83;1.33;;;7.40;91.70;;;9.52;59.24;100110.28;3081188;46;20510;-64
2024/01/04 10:30:26;;;;;;;2.53;1.70;;;7.50;91.80;;;9.65;58.58;100111.44;3079537;46;21372;-63
2024/01/04 10:32:54;;;;;;;1.90;1.70;;;7.60;90.80;;;9.68;57.87;100121.56;3081825;46;20517;-66
2024/01/04 10:35:27;;;;;;;4.13;1.60;;;7.60;90.40;;;9.65;57.58;100122.75;3078277;46;20430;-65
2024/01/04 10:37:59;;;;;;;4.33;1.40;;;7.70;90.20;;;9.63;57.50;100129.19;3075860;46;20547;-66